Time;durP1;ratioP1;P1;durP2;ratioP2;P2;SDS_P1;SDS_P2;PMS_P1;PMS_P2;Temp;Humidity;BMP_temperature;BMP_pressure;BME280_temperature;BME280_humidity;BME280_pressure;Samples;Min_cycle;Max_cycle;Signal;HPM_P1;HPM_P2
2022/11/09 00:01:32;;;;;;;2.58;2.33;;;15.00;99.90;;;;;;5093320;28;20169;-66
2022/11/09 00:04:00;;;;;;;5.00;2.85;;;15.00;99.90;;;;;;5093756;28;20230;-70
2022/11/09 00:06:27;;;;;;;3.13;2.85;;;15.00;99.90;;;;;;5091917;28;20204;-70
2022/11/09 00:08:53;;;;;;;5.15;2.40;;;15.00;99.90;;;;;;5093710;28;20199;-70
2022/11/09 00:11:19;;;;;;;2.50;2.30;;;15.00;99.90;;;;;;5093524;28;20208;-70
2022/11/09 00:13:45;;;;;;;3.80;2.50;;;15.00;99.90;;;;;;5092882;28;20622;-70
2022/11/09 00:16:14;;;;;;;2.50;2.30;;;15.00;99.90;;;;;;5091971;28;20279;-70
2022/11/09 00:18:46;;;;;;;2.60;2.40;;;15.00;99.90;;;;;;5093250;28;20215;-70
2022/11/09 00:21:17;;;;;;;3.22;2.72;;;14.90;99.90;;;;;;5092104;28;20165;-70
2022/11/09 00:23:44;;;;;;;3.15;2.40;;;15.00;99.90;;;;;;5093953;28;20165;-70
2022/11/09 00:26:11;;;;;;;3.80;2.65;;;14.90;99.90;;;;;;5093164;28;20219;-70
2022/11/09 00:28:37;;;;;;;2.90;2.40;;;14.90;99.90;;;;;;5091894;28;20181;-70
2022/11/09 00:31:05;;;;;;;4.40;2.90;;;14.90;99.90;;;;;;5093215;28;20670;-70
2022/11/09 00:33:31;;;;;;;5.15;2.47;;;14.90;99.90;;;;;;5093022;28;20230;-70
2022/11/09 00:35:57;;;;;;;3.40;2.60;;;14.90;99.90;;;;;;5093051;28;20193;-70
2022/11/09 00:38:23;;;;;;;3.83;2.70;;;14.80;99.90;;;;;;5093220;28;20208;-70
2022/11/09 00:40:49;;;;;;;4.15;2.72;;;14.80;99.90;;;;;;5093248;28;20166;-70
2022/11/09 00:43:15;;;;;;;4.72;2.70;;;14.80;99.90;;;;;;5095333;28;20181;-71
2022/11/09 00:45:41;;;;;;;5.20;2.60;;;14.80;99.90;;;;;;5096667;28;20199;-70
2022/11/09 00:48:08;;;;;;;4.20;2.65;;;14.80;99.90;;;;;;5096513;28;20196;-70
2022/11/09 00:50:33;;;;;;;2.75;2.50;;;14.80;99.90;;;;;;5096730;28;20173;-68
2022/11/09 00:53:00;;;;;;;2.85;2.63;;;14.80;99.90;;;;;;5096378;28;20177;-68
2022/11/09 00:55:26;;;;;;;2.95;2.67;;;14.80;99.90;;;;;;5095178;28;20197;-68
2022/11/09 00:57:52;;;;;;;3.70;2.55;;;14.80;99.90;;;;;;5095602;28;20192;-67
2022/11/09 01:00:22;;;;;;;4.13;2.50;;;14.80;99.90;;;;;;5096166;28;20630;-68
2022/11/09 01:02:51;;;;;;;2.72;2.53;;;14.80;99.90;;;;;;5095007;28;20192;-68
2022/11/09 01:05:18;;;;;;;2.70;2.50;;;14.70;99.90;;;;;;5095013;28;20587;-68
2022/11/09 01:07:44;;;;;;;3.33;2.42;;;14.80;99.90;;;;;;5096173;28;20284;-69
2022/11/09 01:10:10;;;;;;;3.88;2.30;;;14.80;99.90;;;;;;5096239;28;20200;-69
2022/11/09 01:12:36;;;;;;;2.83;2.42;;;14.80;99.90;;;;;;5094768;28;20648;-70
2022/11/09 01:15:01;;;;;;;3.33;2.65;;;14.80;99.90;;;;;;5095999;28;20354;-70
2022/11/09 01:17:27;;;;;;;3.13;2.67;;;14.80;99.90;;;;;;5095935;28;20271;-70
2022/11/09 01:19:53;;;;;;;3.20;2.70;;;14.80;99.90;;;;;;5094696;28;20221;-70
2022/11/09 01:22:19;;;;;;;3.05;2.75;;;14.70;99.90;;;;;;5094661;28;20173;-70
2022/11/09 01:24:45;;;;;;;3.58;2.88;;;14.70;99.90;;;;;;5094709;28;20177;-70
2022/11/09 01:27:10;;;;;;;3.50;2.72;;;14.70;99.90;;;;;;5096390;28;20547;-70
2022/11/09 01:29:36;;;;;;;2.80;2.60;;;14.70;99.90;;;;;;5095694;28;20181;-70
2022/11/09 01:32:02;;;;;;;2.72;2.47;;;14.70;99.90;;;;;;5096078;28;20583;-70
2022/11/09 01:34:28;;;;;;;2.50;2.30;;;14.70;99.90;;;;;;5095703;28;20205;-70
2022/11/09 01:36:54;;;;;;;2.80;2.60;;;14.70;99.90;;;;;;5095798;28;20665;-70
2022/11/09 01:39:20;;;;;;;3.28;2.80;;;14.70;99.90;;;;;;5095685;28;20169;-70
2022/11/09 01:41:46;;;;;;;4.97;2.60;;;14.70;99.90;;;;;;5095369;28;20177;-70
2022/11/09 01:44:15;;;;;;;5.10;2.80;;;14.70;99.90;;;;;;5095651;28;20625;-70
2022/11/09 01:46:55;;;;;;;2.95;2.60;;;14.70;99.90;;;;;;5095396;28;20574;-70
2022/11/09 01:49:33;;;;;;;2.92;2.58;;;14.70;99.90;;;;;;5095779;28;20679;-70
2022/11/09 01:52:06;;;;;;;4.78;2.78;;;14.70;99.90;;;;;;5094128;28;20690;-70
2022/11/09 01:54:40;;;;;;;6.22;2.97;;;14.70;99.90;;;;;;5094398;28;20185;-70
2022/11/09 01:57:10;;;;;;;3.35;2.33;;;14.70;99.90;;;;;;5094075;28;20669;-70
2022/11/09 01:59:41;;;;;;;3.03;2.50;;;14.70;99.90;;;;;;5095434;28;20187;-70
2022/11/09 02:02:07;;;;;;;2.97;2.78;;;14.70;99.90;;;;;;5095570;28;20629;-70
2022/11/09 02:04:39;;;;;;;3.92;2.70;;;14.70;99.90;;;;;;5095166;28;20188;-70
2022/11/09 02:07:05;;;;;;;4.55;2.55;;;14.70;99.90;;;;;;5095300;28;20185;-71
2022/11/09 02:09:59;;;;;;;2.70;2.50;;;14.60;99.90;;;;;;5095143;28;20259;-70
2022/11/09 02:12:25;;;;;;;3.45;2.72;;;14.60;99.90;;;;;;5093743;28;20193;-70
2022/11/09 02:14:52;;;;;;;3.40;2.80;;;14.60;99.90;;;;;;5093589;28;20212;-70
2022/11/09 02:17:18;;;;;;;4.68;2.72;;;14.60;99.90;;;;;;5094797;28;20189;-70
2022/11/09 02:19:44;;;;;;;3.65;2.63;;;14.50;99.90;;;;;;5094886;28;20169;-71
2022/11/09 02:22:10;;;;;;;3.92;2.40;;;14.50;99.90;;;;;;5094831;28;20238;-70
2022/11/09 02:24:36;;;;;;;3.88;2.63;;;14.50;99.90;;;;;;5094748;28;20165;-70
2022/11/09 02:27:07;;;;;;;5.43;2.95;;;14.50;99.90;;;;;;5093385;28;20294;-70
2022/11/09 02:29:41;;;;;;;3.30;2.70;;;14.50;99.90;;;;;;5093412;28;20176;-70
2022/11/09 02:32:12;;;;;;;2.92;2.60;;;14.50;99.90;;;;;;5093458;28;20210;-70
2022/11/09 02:34:38;;;;;;;6.05;2.63;;;14.50;99.90;;;;;;5094732;28;20189;-70
2022/11/09 02:37:04;;;;;;;3.13;2.45;;;14.50;99.90;;;;;;5094873;28;20199;-70
2022/11/09 02:39:29;;;;;;;4.13;2.70;;;14.50;99.90;;;;;;5096465;28;20172;-70
2022/11/09 02:41:57;;;;;;;3.22;2.85;;;14.50;99.90;;;;;;5094632;28;20177;-70
2022/11/09 02:44:25;;;;;;;2.92;2.60;;;14.40;99.90;;;;;;5092925;28;20181;-71
2022/11/09 02:46:51;;;;;;;2.70;2.50;;;14.40;99.90;;;;;;5093106;28;20224;-70
2022/11/09 02:49:17;;;;;;;2.92;2.50;;;14.40;99.90;;;;;;5092825;28;20176;-70
2022/11/09 02:51:43;;;;;;;2.97;2.58;;;14.40;99.90;;;;;;5094428;28;20185;-70
2022/11/09 02:54:09;;;;;;;6.50;2.90;;;14.40;99.90;;;;;;5094232;28;20197;-70
2022/11/09 02:56:35;;;;;;;4.18;2.70;;;14.40;99.90;;;;;;5094394;28;20254;-71
2022/11/09 02:59:02;;;;;;;3.60;2.90;;;14.40;99.90;;;;;;5094194;28;20645;-70
2022/11/09 03:01:28;;;;;;;3.85;2.95;;;14.40;99.90;;;;;;5094446;28;20251;-70
2022/11/09 03:03:53;;;;;;;3.10;2.80;;;14.30;99.90;;;;;;5094279;28;20626;-70
2022/11/09 03:06:19;;;;;;;3.55;2.60;;;14.30;99.90;;;;;;5093871;28;20204;-70
2022/11/09 03:08:45;;;;;;;3.60;2.80;;;14.30;99.90;;;;;;5094365;28;20161;-70
2022/11/09 03:11:11;;;;;;;2.85;2.60;;;14.30;99.90;;;;;;5094047;28;20169;-70
2022/11/09 03:13:37;;;;;;;3.72;2.60;;;14.30;99.90;;;;;;5093527;28;20535;-70
2022/11/09 03:16:04;;;;;;;4.70;2.40;;;14.30;99.90;;;;;;5094094;28;20197;-70
2022/11/09 03:18:30;;;;;;;3.45;2.95;;;14.30;99.90;;;;;;5093968;28;20184;-70
2022/11/09 03:21:01;;;;;;;2.97;2.65;;;14.30;99.90;;;;;;5093928;28;20174;-70
2022/11/09 03:23:27;;;;;;;6.93;3.00;;;14.20;99.90;;;;;;5092698;28;20173;-70
2022/11/09 03:25:52;;;;;;;4.85;2.72;;;14.20;99.90;;;;;;5094332;28;20630;-70
2022/11/09 03:28:18;;;;;;;2.85;2.65;;;14.20;99.90;;;;;;5092247;28;20192;-70
2022/11/09 03:30:44;;;;;;;3.05;2.60;;;14.20;99.90;;;;;;5093578;28;20174;-70
2022/11/09 03:33:11;;;;;;;5.60;2.83;;;14.20;99.90;;;;;;5093751;28;20191;-70
2022/11/09 03:35:37;;;;;;;6.32;2.90;;;14.20;99.90;;;;;;5092367;28;20258;-70
2022/11/09 03:38:03;;;;;;;2.92;2.72;;;14.20;99.90;;;;;;5093723;28;20684;-70
2022/11/09 03:40:29;;;;;;;4.00;2.90;;;14.20;99.90;;;;;;5093657;28;20191;-70
2022/11/09 03:42:55;;;;;;;3.50;2.65;;;14.20;99.90;;;;;;5092337;28;20230;-70
2022/11/09 03:45:21;;;;;;;4.18;2.70;;;14.20;99.90;;;;;;5093468;28;20196;-70
2022/11/09 03:47:47;;;;;;;4.75;3.00;;;14.20;99.90;;;;;;5093709;28;20197;-70
2022/11/09 03:50:14;;;;;;;4.10;2.70;;;14.20;99.90;;;;;;5092286;28;20613;-70
2022/11/09 03:52:44;;;;;;;7.18;2.92;;;14.30;99.90;;;;;;5092668;28;20188;-70
2022/11/09 03:55:10;;;;;;;5.60;2.78;;;14.30;99.90;;;;;;5092461;28;20261;-70
2022/11/09 03:57:36;;;;;;;2.85;2.65;;;14.20;99.90;;;;;;5093940;28;20189;-70
2022/11/09 04:00:02;;;;;;;4.78;2.67;;;14.20;99.90;;;;;;5092526;28;20177;-70
2022/11/09 04:02:28;;;;;;;3.90;2.53;;;14.20;99.90;;;;;;5093951;28;20197;-69
2022/11/09 04:04:53;;;;;;;3.78;2.60;;;14.10;99.90;;;;;;5092109;28;20668;-69
2022/11/09 04:07:19;;;;;;;3.25;2.97;;;14.20;99.90;;;;;;5093354;28;20296;-69
2022/11/09 04:09:45;;;;;;;2.72;2.53;;;14.20;99.90;;;;;;5093968;28;20518;-69
2022/11/09 04:12:10;;;;;;;7.22;2.95;;;14.20;99.90;;;;;;5092009;28;20184;-68
2022/11/09 04:14:36;;;;;;;4.95;2.92;;;14.20;99.90;;;;;;5093416;28;20209;-68
2022/11/09 04:17:02;;;;;;;5.80;3.15;;;14.30;99.90;;;;;;5093974;28;20280;-68
2022/11/09 04:19:28;;;;;;;4.03;2.70;;;14.20;99.90;;;;;;5097071;28;20668;-68
2022/11/09 04:21:53;;;;;;;4.55;2.70;;;14.20;99.90;;;;;;5095968;28;20191;-69
2022/11/09 04:24:19;;;;;;;4.72;3.30;;;14.20;99.90;;;;;;5097340;28;20250;-69
2022/11/09 04:26:46;;;;;;;3.15;2.80;;;14.20;99.90;;;;;;5095821;28;20208;-69
2022/11/09 04:29:12;;;;;;;3.63;2.83;;;14.20;99.90;;;;;;5095532;28;20181;-69
2022/11/09 04:31:38;;;;;;;3.28;2.80;;;14.30;99.90;;;;;;5097581;28;20214;-69
2022/11/09 04:34:04;;;;;;;4.72;3.00;;;14.30;99.90;;;;;;5095602;28;20673;-69
2022/11/09 04:36:30;;;;;;;3.28;2.90;;;14.30;99.90;;;;;;5096822;28;20190;-69
2022/11/09 04:38:56;;;;;;;3.22;2.80;;;14.20;99.90;;;;;;5095495;28;20231;-69
2022/11/09 04:41:21;;;;;;;3.45;2.95;;;14.20;99.90;;;;;;5097106;28;20177;-69
2022/11/09 04:43:47;;;;;;;4.68;2.72;;;14.20;99.90;;;;;;5095178;28;20234;-69
2022/11/09 04:46:13;;;;;;;3.60;2.90;;;14.20;99.90;;;;;;5096558;28;20239;-70
2022/11/09 04:48:39;;;;;;;3.28;2.85;;;14.20;99.90;;;;;;5096666;28;20173;-69
2022/11/09 04:51:07;;;;;;;3.60;2.80;;;14.20;99.90;;;;;;5096581;28;20175;-69
2022/11/09 04:53:34;;;;;;;4.22;2.45;;;14.20;99.90;;;;;;5096383;28;20298;-69
2022/11/09 04:56:00;;;;;;;6.82;3.00;;;14.30;99.90;;;;;;5096493;28;20165;-69
2022/11/09 04:58:26;;;;;;;4.90;2.80;;;14.20;99.90;;;;;;5096324;28;20222;-70
2022/11/09 05:00:52;;;;;;;3.83;2.58;;;14.20;99.90;;;;;;5096845;28;20231;-69
2022/11/09 05:03:18;;;;;;;3.08;2.70;;;14.20;99.90;;;;;;5095032;28;20177;-69
2022/11/09 05:05:44;;;;;;;4.50;2.75;;;14.30;99.90;;;;;;5096312;28;20170;-69
2022/11/09 05:08:10;;;;;;;4.53;2.47;;;14.20;99.90;;;;;;5094927;28;20185;-69
2022/11/09 05:10:36;;;;;;;4.03;2.70;;;14.30;99.90;;;;;;5096386;28;20675;-70
2022/11/09 05:13:07;;;;;;;4.00;2.80;;;14.20;99.90;;;;;;5096087;28;20238;-70
2022/11/09 05:15:34;;;;;;;4.70;2.60;;;14.30;99.90;;;;;;5095926;28;20686;-70
2022/11/09 05:18:00;;;;;;;7.80;3.17;;;14.30;99.90;;;;;;5096299;28;20197;-69
2022/11/09 05:20:27;;;;;;;2.40;2.20;;;14.30;99.90;;;;;;5096176;28;20517;-70
2022/11/09 05:25:37;;;;;;;3.88;2.75;;;14.30;99.90;;;;;;5096516;28;20253;-70
2022/11/09 05:28:03;;;;;;;5.22;2.70;;;14.20;99.90;;;;;;5094489;28;20287;-69
2022/11/09 05:30:29;;;;;;;3.70;2.60;;;14.30;99.90;;;;;;5095915;28;20178;-70
2022/11/09 05:32:55;;;;;;;3.92;2.65;;;14.20;99.90;;;;;;5095885;28;20701;-70
2022/11/09 05:35:21;;;;;;;4.95;2.72;;;14.20;99.90;;;;;;5096096;28;20229;-75
2022/11/09 05:37:49;;;;;;;3.67;2.80;;;14.20;99.90;;;;;;5094381;28;20197;-70
2022/11/09 05:40:17;;;;;;;4.65;2.65;;;14.20;99.90;;;;;;5095571;28;20166;-69
2022/11/09 05:42:43;;;;;;;4.07;2.50;;;14.20;99.90;;;;;;5095589;28;20267;-70
2022/11/09 05:45:15;;;;;;;2.83;2.42;;;14.20;99.90;;;;;;5095447;28;20212;-70
2022/11/09 05:47:43;;;;;;;7.15;2.65;;;14.10;99.90;;;;;;5095835;28;20212;-70
2022/11/09 05:50:12;;;;;;;3.88;2.40;;;14.10;99.90;;;;;;5095546;28;20180;-70
2022/11/09 05:52:38;;;;;;;5.32;2.33;;;14.10;99.90;;;;;;5095650;28;20173;-70
2022/11/09 05:55:04;;;;;;;5.35;2.70;;;14.10;99.90;;;;;;5095605;28;20305;-70
2022/11/09 05:57:30;;;;;;;5.15;2.92;;;14.10;99.90;;;;;;5094052;28;20217;-69
2022/11/09 05:59:56;;;;;;;6.90;2.70;;;14.00;99.90;;;;;;5094969;28;20176;-70
2022/11/09 06:02:22;;;;;;;3.55;2.28;;;14.00;99.90;;;;;;5093936;28;20231;-70
2022/11/09 06:04:48;;;;;;;6.10;2.70;;;14.00;99.90;;;;;;5095033;28;20226;-70
2022/11/09 06:07:14;;;;;;;4.13;2.83;;;13.80;99.90;;;;;;5094988;28;20201;-70
2022/11/09 06:09:40;;;;;;;6.38;3.17;;;13.80;99.90;;;;;;5095347;28;20215;-70
2022/11/09 06:12:06;;;;;;;4.90;2.78;;;13.70;99.90;;;;;;5095170;28;20653;-70
2022/11/09 06:14:32;;;;;;;3.97;3.00;;;13.70;99.90;;;;;;5095129;28;20288;-69
2022/11/09 06:16:58;;;;;;;4.80;2.83;;;13.60;99.90;;;;;;5095286;28;20331;-74
2022/11/09 06:19:23;;;;;;;8.85;3.20;;;13.60;99.90;;;;;;5095111;28;20176;-71
2022/11/09 06:21:49;;;;;;;5.85;2.75;;;13.50;99.90;;;;;;5094862;28;20199;-71
2022/11/09 06:24:15;;;;;;;5.07;2.67;;;13.50;99.90;;;;;;5094917;28;20174;-72
2022/11/09 06:26:40;;;;;;;6.35;2.80;;;13.50;99.90;;;;;;5094890;28;20199;-72
2022/11/09 06:29:06;;;;;;;4.32;2.75;;;13.40;99.90;;;;;;5094622;28;20258;-72
2022/11/09 06:31:32;;;;;;;5.75;2.75;;;13.30;99.90;;;;;;5094971;28;20620;-72
2022/11/09 06:33:58;;;;;;;5.28;2.85;;;13.30;99.90;;;;;;5093329;28;20726;-72
2022/11/09 06:36:24;;;;;;;6.57;2.85;;;13.20;99.90;;;;;;5094795;28;20197;-72
2022/11/09 06:38:53;;;;;;;6.40;2.88;;;13.20;99.90;;;;;;5093274;28;20176;-71
2022/11/09 06:41:18;;;;;;;4.53;2.90;;;13.10;99.90;;;;;;5094060;28;20173;-72
2022/11/09 06:43:44;;;;;;;4.18;3.03;;;13.10;99.90;;;;;;5092887;28;20207;-72
2022/11/09 06:46:11;;;;;;;8.55;2.83;;;13.10;99.90;;;;;;5094215;28;20197;-71
2022/11/09 06:48:37;;;;;;;7.45;3.00;;;13.10;99.90;;;;;;5094627;28;20184;-72
2022/11/09 06:51:05;;;;;;;6.82;2.70;;;13.10;99.90;;;;;;5093008;28;20230;-72
2022/11/09 06:53:32;;;;;;;3.83;2.50;;;13.10;99.90;;;;;;5093139;28;20638;-71
2022/11/09 06:56:02;;;;;;;5.28;2.83;;;13.00;99.90;;;;;;5094188;28;20173;-70
2022/11/09 06:58:29;;;;;;;3.65;2.55;;;13.00;99.90;;;;;;5094543;28;20237;-70
2022/11/09 07:00:55;;;;;;;4.57;2.75;;;13.00;99.90;;;;;;5094062;28;20174;-70
2022/11/09 07:03:22;;;;;;;5.05;3.22;;;13.00;99.90;;;;;;5092777;28;20177;-70
2022/11/09 07:05:51;;;;;;;4.85;2.97;;;12.90;99.90;;;;;;5092230;28;20192;-70
2022/11/09 07:08:33;;;;;;;6.85;3.10;;;12.80;99.90;;;;;;5075759;28;20609;-70
2022/11/09 07:11:10;;;;;;;7.97;3.08;;;12.70;99.90;;;;;;5094656;28;20484;-70
2022/11/09 07:13:38;;;;;;;6.43;3.03;;;12.70;99.90;;;;;;5092114;28;20695;-70
2022/11/09 07:16:07;;;;;;;7.83;3.13;;;12.60;99.90;;;;;;5075674;28;20231;-70
2022/11/09 07:18:35;;;;;;;5.50;3.37;;;12.50;99.90;;;;;;5092516;28;20180;-70
2022/11/09 07:21:08;;;;;;;5.38;3.00;;;12.50;99.90;;;;;;5093734;28;20189;-70
2022/11/09 07:23:34;;;;;;;4.47;2.60;;;12.50;99.90;;;;;;5092515;28;20515;-70
2022/11/09 07:26:03;;;;;;;4.55;2.90;;;12.40;99.90;;;;;;5093627;28;20177;-70
2022/11/09 07:28:31;;;;;;;7.37;2.80;;;12.40;99.90;;;;;;5092488;28;20173;-69
2022/11/09 07:31:01;;;;;;;4.03;2.87;;;12.40;99.90;;;;;;5075536;28;20272;-70
2022/11/09 07:33:29;;;;;;;5.23;3.10;;;12.40;99.90;;;;;;5093519;28;20177;-70
2022/11/09 07:36:04;;;;;;;7.97;3.08;;;12.40;99.90;;;;;;5093245;28;20262;-70
2022/11/09 07:38:37;;;;;;;4.97;2.60;;;12.30;99.90;;;;;;5091711;28;20558;-70
2022/11/09 07:41:07;;;;;;;3.03;2.55;;;12.30;99.90;;;;;;5076092;28;20208;-70
2022/11/09 07:43:34;;;;;;;6.63;2.97;;;12.20;99.90;;;;;;5093049;28;20188;-69
2022/11/09 07:46:05;;;;;;;6.93;2.83;;;12.20;99.90;;;;;;5091751;28;20229;-69
2022/11/09 07:48:31;;;;;;;5.15;2.60;;;12.20;99.90;;;;;;5094080;28;20660;-68
2022/11/09 07:51:00;;;;;;;2.90;2.60;;;12.20;99.90;;;;;;5093395;28;20239;-69
2022/11/09 07:53:26;;;;;;;5.07;2.90;;;12.20;99.90;;;;;;5096440;28;20222;-69
2022/11/09 07:56:00;;;;;;;2.95;2.70;;;12.10;99.90;;;;;;5097821;28;20205;-66
2022/11/09 07:58:26;;;;;;;3.90;2.75;;;12.20;99.90;;;;;;5097514;28;20177;-70
2022/11/09 08:00:52;;;;;;;3.13;2.28;;;12.20;99.90;;;;;;5096010;28;20550;-66
2022/11/09 08:03:19;;;;;;;6.55;2.80;;;12.10;99.90;;;;;;5097277;28;20180;-68
2022/11/09 08:05:45;;;;;;;4.10;2.60;;;12.20;99.90;;;;;;5097654;28;20660;-69
2022/11/09 08:08:11;;;;;;;5.22;2.70;;;12.10;99.90;;;;;;5097299;28;20177;-69
2022/11/09 08:10:38;;;;;;;4.07;2.53;;;12.10;99.90;;;;;;5097569;28;20283;-69
2022/11/09 08:13:07;;;;;;;5.43;2.55;;;12.20;99.90;;;;;;5097010;28;20184;-69
2022/11/09 08:15:34;;;;;;;7.25;2.80;;;12.20;99.90;;;;;;5096979;28;20197;-69
2022/11/09 08:18:02;;;;;;;4.30;2.63;;;12.20;99.90;;;;;;5096988;28;20661;-69
2022/11/09 08:20:29;;;;;;;3.65;2.63;;;12.20;99.90;;;;;;5097014;28;20177;-67
2022/11/09 08:22:55;;;;;;;4.80;2.63;;;12.30;99.90;;;;;;5095590;28;20175;-67
2022/11/09 08:25:21;;;;;;;2.75;2.40;;;12.30;99.90;;;;;;5096806;28;20539;-67
2022/11/09 08:27:47;;;;;;;5.03;2.83;;;12.30;99.90;;;;;;5095745;28;20219;-68
2022/11/09 08:30:16;;;;;;;3.05;2.60;;;12.40;99.90;;;;;;5095459;28;20549;-67
2022/11/09 08:32:43;;;;;;;3.90;2.47;;;12.40;99.90;;;;;;5096873;28;20265;-67
2022/11/09 08:35:11;;;;;;;3.30;2.50;;;12.40;99.90;;;;;;5096932;28;20222;-67
2022/11/09 08:37:37;;;;;;;5.30;3.10;;;12.50;99.90;;;;;;5096615;28;20271;-67
2022/11/09 08:40:05;;;;;;;5.32;2.63;;;12.50;99.90;;;;;;5096637;28;20219;-67
2022/11/09 08:42:31;;;;;;;5.35;2.72;;;12.50;99.90;;;;;;5096446;28;20169;-67
2022/11/09 08:44:57;;;;;;;6.32;2.50;;;12.60;99.90;;;;;;5094911;28;20206;-68
2022/11/09 08:47:23;;;;;;;2.65;2.42;;;12.60;99.90;;;;;;5093937;28;20209;-67
2022/11/09 08:49:48;;;;;;;6.30;2.85;;;12.60;99.90;;;;;;5095182;28;20544;-65
2022/11/09 08:52:16;;;;;;;5.15;2.75;;;12.70;99.90;;;;;;5095138;28;20210;-65
2022/11/09 08:54:41;;;;;;;4.97;2.60;;;12.70;99.90;;;;;;5095505;28;20616;-67
2022/11/09 08:57:08;;;;;;;3.72;3.08;;;12.80;99.90;;;;;;5095166;28;20243;-67
2022/11/09 08:59:33;;;;;;;4.00;2.72;;;12.90;99.90;;;;;;5094876;28;20168;-67
2022/11/09 09:01:59;;;;;;;4.32;2.60;;;13.00;99.90;;;;;;5094969;28;20172;-67
2022/11/09 09:04:25;;;;;;;4.28;2.55;;;13.10;99.90;;;;;;5094570;28;20184;-67
2022/11/09 09:06:51;;;;;;;3.60;2.78;;;13.20;99.90;;;;;;5093524;28;20612;-67
2022/11/09 09:09:17;;;;;;;5.60;2.80;;;13.30;99.90;;;;;;5095253;28;20526;-67
2022/11/09 09:11:43;;;;;;;3.78;2.53;;;13.40;99.90;;;;;;5094899;28;20182;-67
2022/11/09 09:14:08;;;;;;;5.07;2.88;;;13.50;99.90;;;;;;5093526;28;20193;-67
2022/11/09 09:16:34;;;;;;;4.03;2.60;;;13.70;99.90;;;;;;5094686;28;20649;-67
2022/11/09 09:19:00;;;;;;;5.45;2.55;;;13.70;99.90;;;;;;5094700;28;20258;-67
2022/11/09 09:21:25;;;;;;;3.88;2.70;;;13.80;99.90;;;;;;5095174;28;20516;-67
2022/11/09 09:23:51;;;;;;;5.15;2.70;;;14.00;99.90;;;;;;5094648;28;20169;-67
2022/11/09 09:26:17;;;;;;;5.80;2.50;;;14.10;99.90;;;;;;5093262;28;20197;-67
2022/11/09 09:28:43;;;;;;;5.82;2.58;;;14.20;99.90;;;;;;5094423;28;20531;-67
2022/11/09 09:31:09;;;;;;;5.88;2.88;;;14.30;99.90;;;;;;5093214;28;20173;-66
2022/11/09 09:33:35;;;;;;;5.05;2.50;;;14.40;99.90;;;;;;5094703;28;20201;-67
2022/11/09 09:36:01;;;;;;;5.90;2.58;;;14.50;99.90;;;;;;5094320;28;20283;-77
2022/11/09 09:38:28;;;;;;;5.00;2.75;;;14.50;99.90;;;;;;5094751;28;20165;-67
2022/11/09 09:40:59;;;;;;;6.82;2.58;;;14.40;99.90;;;;;;5093491;28;20646;-73
2022/11/09 09:43:33;;;;;;;4.07;2.50;;;14.40;99.90;;;;;;5094716;28;20181;-68
2022/11/09 09:46:01;;;;;;;7.18;2.70;;;14.40;99.90;;;;;;5051202;28;1240130;-67
2022/11/09 09:48:38;;;;;;;4.47;2.60;;;14.40;99.90;;;;;;5095728;28;20176;-67
2022/11/09 09:51:16;;;;;;;2.90;2.53;;;14.50;99.90;;;;;;5095855;28;20169;-67
2022/11/09 09:53:47;;;;;;;4.05;2.63;;;14.70;99.90;;;;;;5095498;28;20267;-67
2022/11/09 09:56:32;;;;;;;4.93;2.70;;;14.70;99.90;;;;;;5095370;28;20641;-67
2022/11/09 09:59:27;;;;;;;7.05;2.70;;;14.90;99.90;;;;;;5094941;28;20244;-66
2022/11/09 10:01:56;;;;;;;4.05;2.47;;;15.00;99.90;;;;;;5095592;28;20586;-66
2022/11/09 10:04:31;;;;;;;4.45;2.35;;;15.10;99.90;;;;;;5094328;28;20170;-67
2022/11/09 10:07:03;;;;;;;8.52;2.72;;;15.20;99.90;;;;;;5092246;28;20207;-70
2022/11/09 10:09:55;;;;;;;5.93;3.13;;;15.20;99.90;;;;;;5057743;28;20191;-66
2022/11/09 10:12:37;;;;;;;3.90;2.72;;;15.00;99.90;;;;;;5075037;28;20607;-66
2022/11/09 10:15:25;;;;;;;4.35;2.95;;;15.00;99.90;;;;;;5072400;28;20233;-66
2022/11/09 10:18:32;;;;;;;2.97;2.50;;;14.90;99.90;;;;;;5075005;28;20197;-66
2022/11/09 10:21:10;;;;;;;5.72;2.58;;;14.90;99.90;;;;;;5072679;28;20186;-66
2022/11/09 10:23:59;;;;;;;6.45;3.03;;;14.90;99.90;;;;;;5072926;28;20162;-66
2022/11/09 10:26:32;;;;;;;5.60;2.78;;;15.00;99.90;;;;;;5073030;28;20209;-67
2022/11/09 10:29:01;;;;;;;3.42;2.35;;;15.10;99.90;;;;;;5074242;28;20249;-67
2022/11/09 10:31:31;;;;;;;9.00;2.88;;;15.10;99.90;;;;;;5074242;28;20178;-67
2022/11/09 10:34:01;;;;;;;4.85;2.72;;;15.10;99.90;;;;;;5073996;28;20211;-67
2022/11/09 10:36:42;;;;;;;5.30;2.55;;;15.10;99.90;;;;;;5074788;28;20196;-67
2022/11/09 10:39:12;;;;;;;3.90;2.58;;;15.10;99.90;;;;;;5072560;28;20273;-67
2022/11/09 10:41:41;;;;;;;3.10;2.47;;;15.10;99.90;;;;;;5074252;28;20611;-67
2022/11/09 10:44:15;;;;;;;4.43;2.45;;;15.10;99.90;;;;;;5072649;28;20181;-67
2022/11/09 10:47:01;;;;;;;4.10;2.80;;;15.10;99.90;;;;;;5072382;28;20215;-67
2022/11/09 10:49:27;;;;;;;6.15;2.60;;;15.20;99.90;;;;;;5074110;28;20616;-67
2022/11/09 10:51:53;;;;;;;3.97;2.70;;;15.20;99.90;;;;;;5072487;28;20272;-67
2022/11/09 10:54:20;;;;;;;3.85;2.63;;;15.20;99.90;;;;;;5073529;28;20198;-67
2022/11/09 10:56:49;;;;;;;5.18;2.60;;;15.30;99.90;;;;;;5072926;28;20198;-70
2022/11/09 10:59:44;;;;;;;2.67;2.45;;;15.40;99.90;;;;;;5073714;28;20169;-71
2022/11/09 11:02:25;;;;;;;4.15;2.42;;;15.50;99.90;;;;;;5072723;28;20696;-70
2022/11/09 11:05:03;;;;;;;3.17;2.60;;;15.60;99.90;;;;;;5072314;28;20212;-70
2022/11/09 11:07:29;;;;;;;2.58;2.35;;;15.70;99.90;;;;;;5073497;28;20200;-74
2022/11/09 11:09:56;;;;;;;3.30;2.45;;;15.80;99.90;;;;;;5073507;28;20162;-71
2022/11/09 11:12:22;;;;;;;3.90;2.50;;;15.70;99.90;;;;;;5073296;28;20181;-70
2022/11/09 11:14:47;;;;;;;6.57;2.30;;;15.60;99.90;;;;;;5073440;28;20202;-70
2022/11/09 11:17:22;;;;;;;5.70;2.60;;;15.40;99.90;;;;;;5073254;28;20674;-70
2022/11/09 11:19:47;;;;;;;8.93;2.78;;;15.20;99.90;;;;;;5073584;28;20172;-70
2022/11/09 11:22:21;;;;;;;2.65;2.45;;;15.20;99.90;;;;;;5072173;28;20178;-70
2022/11/09 11:24:57;;;;;;;4.85;2.83;;;15.30;99.90;;;;;;5072175;28;20162;-70
2022/11/09 11:27:43;;;;;;;3.45;2.50;;;15.30;99.90;;;;;;5073239;28;20201;-70
2022/11/09 11:30:21;;;;;;;3.25;2.45;;;15.30;99.90;;;;;;5073626;28;20170;-70
2022/11/09 11:32:47;;;;;;;4.75;2.35;;;15.50;99.90;;;;;;5073232;28;20579;-70
2022/11/09 11:35:28;;;;;;;4.57;2.40;;;15.50;99.90;;;;;;5071967;28;20194;-70
2022/11/09 11:38:13;;;;;;;9.38;2.70;;;15.70;99.90;;;;;;5071725;28;20711;-70
2022/11/09 11:41:04;;;;;;;4.28;2.70;;;15.60;99.90;;;;;;5073231;28;20161;-70
2022/11/09 11:43:30;;;;;;;5.07;2.55;;;15.50;99.90;;;;;;5073530;28;20212;-70
2022/11/09 11:45:58;;;;;;;7.40;2.67;;;15.40;99.90;;;;;;5073223;28;20190;-69
2022/11/09 11:48:50;;;;;;;7.22;2.38;;;15.50;99.90;;;;;;5073215;28;20200;-70
2022/11/09 11:51:54;;;;;;;3.88;2.30;;;15.60;99.90;;;;;;5073764;28;20161;-70
2022/11/09 11:54:41;;;;;;;5.18;2.35;;;15.80;99.90;;;;;;5063715;28;20213;-70
2022/11/09 11:57:27;;;;;;;7.22;2.58;;;15.60;99.90;;;;;;5073321;28;20716;-70
2022/11/09 11:59:53;;;;;;;2.45;2.10;;;15.50;99.90;;;;;;5073053;28;20162;-70
2022/11/09 12:02:37;;;;;;;4.32;2.58;;;15.30;99.90;;;;;;5072973;28;20275;-70
2022/11/09 12:05:40;;;;;;;3.60;2.35;;;15.50;99.90;;;;;;5073554;28;20166;-70
2022/11/09 12:08:14;;;;;;;4.97;2.80;;;15.40;99.90;;;;;;5072637;28;20208;-70
2022/11/09 12:10:52;;;;;;;2.30;2.00;;;15.50;99.90;;;;;;5073226;28;20193;-70
2022/11/09 12:13:20;;;;;;;6.18;2.42;;;15.50;99.90;;;;;;5071936;28;20522;-69
2022/11/09 12:15:58;;;;;;;6.78;2.33;;;15.40;99.90;;;;;;5072929;28;20197;-70
2022/11/09 12:18:40;;;;;;;5.15;2.63;;;15.40;99.90;;;;;;5071588;28;20170;-70
2022/11/09 12:21:19;;;;;;;3.03;2.38;;;15.60;99.90;;;;;;5072915;28;20249;-70
2022/11/09 12:24:13;;;;;;;2.53;2.30;;;15.80;99.90;;;;;;5072694;28;20185;-70
2022/11/09 12:26:48;;;;;;;3.55;2.50;;;15.90;99.90;;;;;;5072612;28;20197;-70
2022/11/09 12:29:40;;;;;;;7.43;2.47;;;15.80;99.90;;;;;;5072763;28;20157;-70
2022/11/09 12:32:36;;;;;;;8.73;2.63;;;16.00;99.90;;;;;;5071779;28;20190;-70
2022/11/09 12:35:23;;;;;;;4.68;2.20;;;16.00;99.90;;;;;;5071669;28;20213;-74
2022/11/09 12:38:12;;;;;;;4.65;2.58;;;16.10;99.90;;;;;;5071623;28;20206;-70
2022/11/09 12:40:50;;;;;;;4.43;2.47;;;16.30;99.90;;;;;;5075708;28;20212;-70
2022/11/09 12:43:25;;;;;;;3.05;2.35;;;16.40;99.90;;;;;;5074740;28;20204;-70
2022/11/09 12:45:52;;;;;;;4.70;2.20;;;16.30;99.90;;;;;;5076342;28;20271;-70
2022/11/09 12:48:31;;;;;;;3.67;2.30;;;16.30;99.90;;;;;;5076336;28;20602;-70
2022/11/09 12:50:59;;;;;;;7.22;2.70;;;16.30;99.90;;;;;;5076562;28;20268;-70
2022/11/09 12:53:29;;;;;;;5.53;2.60;;;16.10;99.90;;;;;;5074820;28;20181;-70
2022/11/09 12:55:58;;;;;;;7.07;2.63;;;16.00;99.90;;;;;;5075972;28;20246;-69
2022/11/09 12:58:30;;;;;;;5.25;2.50;;;16.10;99.90;;;;;;5076050;28;20638;-70
2022/11/09 13:00:58;;;;;;;3.58;2.40;;;15.90;99.90;;;;;;5074781;28;20180;-70
2022/11/09 13:03:36;;;;;;;5.03;2.30;;;15.90;99.90;;;;;;5076044;28;20223;-70